• Join FlightAware (Why Join?)
  • Login
  • US Flag 
12:35AM EDT


 

Airport Tracker/Info


-or-


 

Live Flight TrackerFlight Track Log ✈ ASQ5041 ✈ 29-Apr-2013 ✈ KMCI - KDTW

Flight Track Log - Related Links

Times and Time Zones

All times are in EDT time to prevent confusion due to time zone crossing. See the ASQ5041 flight status page for this flight to view local times or setup timezone preferences in your user account.

Time Position Orientation Groundspeed Altitude Reporting Facility
EDT Latitude Longitude Course Direction KTS MPH feet Rate Location/Type
02:52PM 39.2833 -94.7000 196° South 155 178 1,600  Level Kansas City TRACON
02:53PM 39.2378 -94.7169 196° South 194 223 3,300 1,860 Climbing Kansas City Center
02:54PM 39.1814 -94.6872 158° South 266 306 5,300 2,220 Climbing Kansas City Center
02:55PM 39.2044 -94.5728 75° East 315 362 8,000 2,400 Climbing Kansas City Center
02:56PM 39.2775 -94.5167 31° Northeast 320 368 10,300 1,680 Climbing Kansas City Center
02:57PM 39.3744 -94.4417 31° Northeast 376 433 11,500 1,140 Climbing Kansas City Center
02:58PM 39.4661 -94.3708 31° Northeast 399 459 12,700 1,440 Climbing Kansas City Center
02:59PM 39.5797 -94.2822 31° Northeast 425 489 14,500 1,740 Climbing Kansas City Center
03:00PM 39.6772 -94.2061 31° Northeast 426 490 16,300 1,920 Climbing Kansas City Center
03:01PM 39.7558 -94.0683 53° Northeast 439 505 18,500 1,860 Climbing Kansas City Center
03:02PM 39.8114 -93.9322 62° Northeast 437 503 20,200 1,440 Climbing Kansas City Center
03:03PM 39.8717 -93.7953 60° Northeast 440 506 21,500 1,200 Climbing Kansas City Center
03:04PM 39.9117 -93.6461 71° East 448 516 22,800 1,200 Climbing Kansas City Center
03:05PM 39.9456 -93.4922 74° East 450 518 24,100 1,320 Climbing Kansas City Center
03:06PM 39.9861 -93.3058 74° East 450 518 25,600 1,320 Climbing Kansas City Center
03:07PM 40.0181 -93.1497 75° East 451 519 26,900 1,140 Climbing Kansas City Center
03:08PM 40.0514 -92.9953 74° East 448 516 28,000 960 Climbing Kansas City Center
03:09PM 40.0847 -92.8311 75° East 454 522 29,000 480 Climbing Kansas City Center
03:10PM 40.1228 -92.6464 75° East 470 541 29,000 120 Level Kansas City Center
03:11PM 40.1681 -92.4850 70° East 487 560 29,300 840 Climbing Kansas City Center
03:13PM 40.2314 -92.3261 62° Northeast 489 563 30,800 1,260 Climbing Kansas City Center
03:14PM 40.2856 -92.1714 65° Northeast 479 551 32,000 1,020 Climbing Kansas City Center
03:15PM 40.3492 -91.9872 66° East 471 542 33,000 480 Climbing Kansas City Center
03:16PM 40.4047 -91.8294 65° Northeast 477 549 33,000  Level Kansas City Center
03:17PM 40.4617 -91.6683 65° Northeast 488 562 33,000  Level Kansas City Center
03:17PM 40.4853 -91.6028 65° Northeast 492 566 33,000  Level Chicago Center
03:18PM 40.5417 -91.4408 65° Northeast 492 566 33,000  Level Chicago Center
03:19PM 40.5950 -91.2878 65° Northeast 490 564 33,000  Level Chicago Center
03:20PM 40.6617 -91.0911 66° East 491 565 33,000  Level Chicago Center
03:21PM 40.7183 -90.9250 66° East 497 572 33,000  Level Chicago Center
03:22PM 40.7636 -90.7456 72° East 512 589 33,000  Level Chicago Center
03:23PM 40.8083 -90.5650 72° East 516 594 33,000  Level Chicago Center
03:24PM 40.8542 -90.3847 71° East 516 594 33,000  Level Chicago Center
03:25PM 40.9042 -90.1836 72° East 520 598 33,000  Level Chicago Center
03:26PM 40.9475 -90.0031 72° East 519 597 33,000  Level Chicago Center
03:27PM 40.9900 -89.8225 73° East 518 596 33,000  Level Chicago Center
03:28PM 41.0331 -89.6483 72° East 519 597 33,000  Level Chicago Center
03:29PM 41.0850 -89.4286 73° East 519 597 33,000  Level Chicago Center
03:30PM 41.1286 -89.2433 73° East 522 601 33,000  Level Chicago Center
03:31PM 41.1692 -89.0608 73° East 518 596 33,000  Level Chicago Center
03:32PM 41.2106 -88.8786 73° East 519 597 33,000  Level Chicago Center
03:33PM 41.2539 -88.6950 73° East 523 602 33,000  Level Chicago Center
03:35PM 41.2953 -88.5128 73° East 520 598 33,000  Level Chicago Center
03:36PM 41.3453 -88.2939 73° East 515 593 33,000  Level Chicago Center
03:37PM 41.3792 -88.1406 74° East 516 594 33,000  Level Chicago Center
03:38PM 41.4314 -87.9197 72° East 520 598 33,000  Level Chicago Center
03:39PM 41.4717 -87.7261 74° East 517 595 33,000  Level Chicago Center
03:40PM 41.5108 -87.5456 74° East 514 592 33,000  Level Chicago Center
03:41PM 41.5489 -87.3653 74° East 508 585 33,000  Level Chicago Center
03:42PM 41.5881 -87.1833 74° East 511 588 33,000  Level Chicago Center
03:43PM 41.6264 -87.0028 74° East 509 586 33,000 -240 Level Chicago Center
03:44PM 41.6647 -86.8211 74° East 510 587 32,600 -720 Descending Chicago Center
03:45PM 41.6961 -86.6247 78° East 514 592 31,600 -1,020 Descending Chicago Center
03:46PM 41.7136 -86.4369 83° East 510 587 30,500 -1,140 Descending Chicago Center
03:47PM 41.7394 -86.2128 81° East 507 583 29,300 -1,080 Descending Chicago Center
03:48PM 41.7494 -86.0289 86° East 494 568 28,300 -1,020 Descending Chicago Center
03:49PM 41.7492 -85.8464 90° East 490 564 27,300 -1,140 Descending Chicago Center
03:50PM 41.7481 -85.6656 90° East 485 558 26,000 -1,440 Descending Chicago Center
03:51PM 41.7472 -85.4803 90° East 488 562 24,400 -1,740 Descending Chicago Center
03:52PM 41.8006 -85.3125 67° East 478 550 22,500 -1,920 Descending Chicago Center
03:53PM 41.8228 -85.1425 80° East 463 533 20,500 -1,980 Descending Chicago Center
03:53PM 41.8261 -85.0728 86° East 443 510 19,700 -1,140 Descending Cleveland Center
03:54PM 41.8261 -84.9083 90° East 443 510 19,000 -360 Descending Cleveland Center
03:55PM 41.8281 -84.7497 89° East 433 498 19,000  Level Cleveland Center
03:56PM 41.8269 -84.5989 91° East 419 482 19,000  Level Cleveland Center
03:57PM 41.8250 -84.5375 92° East 404 465 19,000 -900 Level Cleveland Center
03:57PM 41.8258 -84.4483 89° East 408 470 18,100 -1,920 Descending Cleveland Center
03:58PM 41.8289 -84.2981 88° East 403 464 15,800 -2,520 Descending Cleveland Center
03:59PM 41.8256 -84.1417 92° East 377 434 13,300 -2,100 Descending Cleveland Center
04:00PM 41.8331 -84.0333 85° East 357 411 12,100 -840 Descending Cleveland Center
04:01PM 41.8903 -83.9333 52° Northeast 328 377 11,800 -540 Descending Cleveland Center
04:02PM 41.9494 -83.8303 52° Northeast 295 339 11,000 -420 Descending Cleveland Center
04:03PM 41.9975 -83.7544 50° Northeast 240 276 11,000  Level Cleveland Center
04:04PM 42.0492 -83.6928 42° Northeast 251 289 11,000  Level Cleveland Center
04:05PM 42.1008 -83.6281 43° Northeast 251 289 11,000  Level Cleveland Center
04:06PM 42.1583 -83.5861 28° Northeast 222 255 11,000  Level Cleveland Center
04:07PM 42.2136 -83.5467 28° Northeast 226 260 11,000 -300 Level Cleveland Center
04:09PM 42.2708 -83.5072 27° Northeast 223 257 10,500 -1,020 Descending Cleveland Center
04:10PM 42.3239 -83.4703 27° Northeast 207 238 9,000 -1,680 Descending Cleveland Center
04:11PM 42.3747 -83.4361 26° Northeast 203 234 7,100 -1,020 Descending Cleveland Center
04:12PM 42.4258 -83.3961 30° Northeast 197 227 7,000 -360 Descending Cleveland Center
04:13PM 42.4789 -83.3592 27° Northeast 194 223 6,400 -900 Descending Cleveland Center
04:14PM 42.5253 -83.3303 25° Northeast 203 234 5,200 -1,320 Descending Cleveland Center